sensor_id;sensor_type;location;lat;lon;timestamp;pressure;altitude;pressure_sealevel;temperature;humidity
36260;BME280;22296;50.824;5.644;2023-03-26T00:01:21;99915.03;;;16.52;56.64
36260;BME280;22296;50.824;5.644;2023-03-26T00:03:50;99925.34;;;16.51;56.75
36260;BME280;22296;50.824;5.644;2023-03-26T00:06:25;99920.50;;;16.48;56.78
36260;BME280;22296;50.824;5.644;2023-03-26T00:08:54;99908.44;;;16.44;56.89
36260;BME280;22296;50.824;5.644;2023-03-26T00:11:22;99914.00;;;16.44;56.79
36260;BME280;22296;50.824;5.644;2023-03-26T00:13:50;99906.72;;;16.40;56.85
36260;BME280;22296;50.824;5.644;2023-03-26T00:16:19;99903.94;;;16.40;56.75
36260;BME280;22296;50.824;5.644;2023-03-26T00:18:46;99913.78;;;16.37;56.83
36260;BME280;22296;50.824;5.644;2023-03-26T00:21:16;99904.88;;;16.32;57.06
36260;BME280;22296;50.824;5.644;2023-03-26T00:23:43;99904.88;;;16.32;57.02
36260;BME280;22296;50.824;5.644;2023-03-26T00:26:10;99898.88;;;16.30;56.98
36260;BME280;22296;50.824;5.644;2023-03-26T00:28:40;99900.34;;;16.27;57.04
36260;BME280;22296;50.824;5.644;2023-03-26T00:31:10;99891.69;;;16.29;57.10
36260;BME280;22296;50.824;5.644;2023-03-26T00:33:38;99889.59;;;16.26;57.21
36260;BME280;22296;50.824;5.644;2023-03-26T00:36:10;99883.91;;;16.22;57.08
36260;BME280;22296;50.824;5.644;2023-03-26T00:38:37;99883.91;;;16.22;57.29
36260;BME280;22296;50.824;5.644;2023-03-26T00:41:10;99876.28;;;16.19;57.25
36260;BME280;22296;50.824;5.644;2023-03-26T00:43:44;99871.91;;;16.18;57.26
36260;BME280;22296;50.824;5.644;2023-03-26T00:46:15;99872.59;;;16.15;57.17
36260;BME280;22296;50.824;5.644;2023-03-26T00:48:45;99873.38;;;16.16;57.24
36260;BME280;22296;50.824;5.644;2023-03-26T00:51:14;99867.72;;;16.12;57.12
36260;BME280;22296;50.824;5.644;2023-03-26T00:53:43;99869.34;;;16.13;57.07
36260;BME280;22296;50.824;5.644;2023-03-26T00:56:12;99862.88;;;16.09;57.07
36260;BME280;22296;50.824;5.644;2023-03-26T00:58:39;99866.91;;;16.12;57.15
36260;BME280;22296;50.824;5.644;2023-03-26T01:01:09;99871.56;;;16.08;57.10
36260;BME280;22296;50.824;5.644;2023-03-26T01:03:40;99862.38;;;16.07;57.11
36260;BME280;22296;50.824;5.644;2023-03-26T01:06:25;99859.59;;;16.07;57.24
36260;BME280;22296;50.824;5.644;2023-03-26T01:08:54;99851.53;;;16.02;57.33
36260;BME280;22296;50.824;5.644;2023-03-26T01:11:28;99855.47;;;16.01;57.34
36260;BME280;22296;50.824;5.644;2023-03-26T01:14:01;99843.53;;;16.01;57.19
36260;BME280;22296;50.824;5.644;2023-03-26T01:16:40;99842.72;;;16.00;57.38
36260;BME280;22296;50.824;5.644;2023-03-26T01:21:46;99850.84;;;15.93;57.41
36260;BME280;22296;50.824;5.644;2023-03-26T01:24:14;99839.38;;;15.94;57.49
36260;BME280;22296;50.824;5.644;2023-03-26T01:29:54;99833.13;;;15.85;57.52
36260;BME280;22296;50.824;5.644;2023-03-26T01:32:47;99833.59;;;15.87;57.46
36260;BME280;22296;50.824;5.644;2023-03-26T01:40:58;99821.91;;;15.82;57.61
36260;BME280;22296;50.824;5.644;2023-03-26T01:46:16;99805.69;;;15.84;57.59
36260;BME280;22296;50.824;5.644;2023-03-26T01:48:46;99798.50;;;15.83;57.73
36260;BME280;22296;50.824;5.644;2023-03-26T01:51:25;99789.72;;;15.81;57.76
36260;BME280;22296;50.824;5.644;2023-03-26T01:53:54;99779.38;;;15.81;57.66
36260;BME280;22296;50.824;5.644;2023-03-26T01:56:33;99776.97;;;15.80;57.90
36260;BME280;22296;50.824;5.644;2023-03-26T02:09:30;99753.81;;;15.76;58.00
36260;BME280;22296;50.824;5.644;2023-03-26T02:12:02;99748.25;;;15.76;58.08
36260;BME280;22296;50.824;5.644;2023-03-26T02:14:30;99743.88;;;15.75;58.13
36260;BME280;22296;50.824;5.644;2023-03-26T02:16:58;99741.78;;;15.72;58.22
36260;BME280;22296;50.824;5.644;2023-03-26T02:19:26;99744.19;;;15.73;58.16
36260;BME280;22296;50.824;5.644;2023-03-26T02:21:52;99735.75;;;15.70;58.32
36260;BME280;22296;50.824;5.644;2023-03-26T02:24:26;99737.75;;;15.69;58.28
36260;BME280;22296;50.824;5.644;2023-03-26T02:26:55;99730.56;;;15.68;58.31
36260;BME280;22296;50.824;5.644;2023-03-26T02:29:24;99726.97;;;15.68;58.15
36260;BME280;22296;50.824;5.644;2023-03-26T02:31:53;99726.50;;;15.66;58.74
36260;BME280;22296;50.824;5.644;2023-03-26T02:34:19;99718.50;;;15.64;58.46
36260;BME280;22296;50.824;5.644;2023-03-26T02:36:51;99714.94;;;15.64;58.50
36260;BME280;22296;50.824;5.644;2023-03-26T02:39:19;99713.31;;;15.63;58.72
36260;BME280;22296;50.824;5.644;2023-03-26T02:42:00;99704.97;;;15.63;58.31
36260;BME280;22296;50.824;5.644;2023-03-26T02:44:29;99700.56;;;15.62;58.56
36260;BME280;22296;50.824;5.644;2023-03-26T02:46:56;99696.19;;;15.61;58.61
36260;BME280;22296;50.824;5.644;2023-03-26T02:49:43;99689.00;;;15.60;58.56
36260;BME280;22296;50.824;5.644;2023-03-26T02:52:17;99679.06;;;15.59;58.72
36260;BME280;22296;50.824;5.644;2023-03-26T02:54:46;99659.59;;;15.59;58.25
36260;BME280;22296;50.824;5.644;2023-03-26T02:57:18;99656.38;;;15.57;58.76
36260;BME280;22296;50.824;5.644;2023-03-26T03:00:04;99661.94;;;15.57;58.75
36260;BME280;22296;50.824;5.644;2023-03-26T03:02:47;99651.97;;;15.56;58.76
36260;BME280;22296;50.824;5.644;2023-03-26T03:05:31;99655.94;;;15.55;58.88
36260;BME280;22296;50.824;5.644;2023-03-26T03:08:19;99653.16;;;15.55;58.81
36260;BME280;22296;50.824;5.644;2023-03-26T03:11:19;99643.88;;;15.51;58.89
36260;BME280;22296;50.824;5.644;2023-03-26T03:13:51;99639.97;;;15.52;58.79
36260;BME280;22296;50.824;5.644;2023-03-26T03:16:25;99635.56;;;15.51;58.99
36260;BME280;22296;50.824;5.644;2023-03-26T03:18:53;99625.63;;;15.50;58.93
36260;BME280;22296;50.824;5.644;2023-03-26T03:21:32;99630.00;;;15.51;58.93
36260;BME280;22296;50.824;5.644;2023-03-26T03:23:59;99621.31;;;15.52;58.83
36260;BME280;22296;50.824;5.644;2023-03-26T03:26:30;99610.19;;;15.52;58.88
36260;BME280;22296;50.824;5.644;2023-03-26T03:29:08;99608.56;;;15.51;59.00
36260;BME280;22296;50.824;5.644;2023-03-26T03:31:35;99601.31;;;15.47;59.02
36260;BME280;22296;50.824;5.644;2023-03-26T03:34:12;99592.72;;;15.52;58.85
36260;BME280;22296;50.824;5.644;2023-03-26T03:36:47;99587.16;;;15.52;58.79
36260;BME280;22296;50.824;5.644;2023-03-26T03:39:33;99582.41;;;15.52;58.88
36260;BME280;22296;50.824;5.644;2023-03-26T03:42:00;99576.94;;;15.56;58.75
36260;BME280;22296;50.824;5.644;2023-03-26T03:44:27;99572.81;;;15.50;58.88
36260;BME280;22296;50.824;5.644;2023-03-26T03:46:54;99563.31;;;15.51;58.88
36260;BME280;22296;50.824;5.644;2023-03-26T03:49:22;99554.53;;;15.49;58.89
36260;BME280;22296;50.824;5.644;2023-03-26T03:51:49;99559.28;;;15.48;58.92
36260;BME280;22296;50.824;5.644;2023-03-26T03:54:26;99549.66;;;15.46;59.39
36260;BME280;22296;50.824;5.644;2023-03-26T03:57:17;99552.91;;;15.48;58.92
36260;BME280;22296;50.824;5.644;2023-03-26T03:59:59;99548.97;;;15.49;58.89
36260;BME280;22296;50.824;5.644;2023-03-26T04:02:40;99539.47;;;15.50;58.90
36260;BME280;22296;50.824;5.644;2023-03-26T04:05:09;99536.72;;;15.50;59.00
36260;BME280;22296;50.824;5.644;2023-03-26T04:07:42;99529.84;;;15.47;58.93
36260;BME280;22296;50.824;5.644;2023-03-26T04:10:22;99525.13;;;15.48;58.96
36260;BME280;22296;50.824;5.644;2023-03-26T04:13:13;99507.63;;;15.47;58.84
36260;BME280;22296;50.824;5.644;2023-03-26T04:16:00;99494.78;;;15.43;59.04
36260;BME280;22296;50.824;5.644;2023-03-26T04:18:27;99490.84;;;15.44;59.02
36260;BME280;22296;50.824;5.644;2023-03-26T04:20:59;99489.22;;;15.43;59.05
36260;BME280;22296;50.824;5.644;2023-03-26T04:23:30;99479.66;;;15.40;59.15
36260;BME280;22296;50.824;5.644;2023-03-26T04:26:17;99476.50;;;15.41;59.06
36260;BME280;22296;50.824;5.644;2023-03-26T04:29:06;99457.53;;;15.44;59.04
36260;BME280;22296;50.824;5.644;2023-03-26T04:31:38;99459.84;;;15.41;59.11
36260;BME280;22296;50.824;5.644;2023-03-26T04:34:08;99448.00;;;15.45;58.95
36260;BME280;22296;50.824;5.644;2023-03-26T04:36:51;99451.06;;;15.39;59.14
36260;BME280;22296;50.824;5.644;2023-03-26T04:39:24;99447.13;;;15.40;58.98
36260;BME280;22296;50.824;5.644;2023-03-26T04:42:13;99432.75;;;15.38;59.09
36260;BME280;22296;50.824;5.644;2023-03-26T04:44:53;99430.91;;;15.43;59.08
36260;BME280;22296;50.824;5.644;2023-03-26T04:47:20;99424.91;;;15.40;59.15
36260;BME280;22296;50.824;5.644;2023-03-26T04:49:48;99427.22;;;15.38;59.24
36260;BME280;22296;50.824;5.644;2023-03-26T04:52:16;99431.16;;;15.37;59.20
36260;BME280;22296;50.824;5.644;2023-03-26T04:55:06;99435.91;;;15.37;59.23
36260;BME280;22296;50.824;5.644;2023-03-26T04:57:40;99418.44;;;15.36;59.18
36260;BME280;22296;50.824;5.644;2023-03-26T05:00:26;99420.78;;;15.34;59.32
36260;BME280;22296;50.824;5.644;2023-03-26T05:02:56;99426.78;;;15.36;59.16
36260;BME280;22296;50.824;5.644;2023-03-26T05:05:27;99426.31;;;15.34;59.22
36260;BME280;22296;50.824;5.644;2023-03-26T05:07:57;99419.97;;;15.34;59.30
36260;BME280;22296;50.824;5.644;2023-03-26T05:10:24;99422.38;;;15.35;59.33
36260;BME280;22296;50.824;5.644;2023-03-26T05:13:03;99410.81;;;15.33;59.20
36260;BME280;22296;50.824;5.644;2023-03-26T05:15:34;99401.66;;;15.33;59.10
36260;BME280;22296;50.824;5.644;2023-03-26T05:18:06;99400.84;;;15.32;58.94
36260;BME280;22296;50.824;5.644;2023-03-26T05:20:45;99396.94;;;15.33;59.19
36260;BME280;22296;50.824;5.644;2023-03-26T05:23:12;99396.03;;;15.29;59.33
36260;BME280;22296;50.824;5.644;2023-03-26T05:26:11;99384.94;;;15.29;59.25
36260;BME280;22296;50.824;5.644;2023-03-26T05:28:39;99387.72;;;15.29;59.37
36260;BME280;22296;50.824;5.644;2023-03-26T05:31:38;99389.31;;;15.30;59.35
36260;BME280;22296;50.824;5.644;2023-03-26T05:34:05;99384.47;;;15.27;59.35
36260;BME280;22296;50.824;5.644;2023-03-26T05:36:32;99373.81;;;15.29;59.28
36260;BME280;22296;50.824;5.644;2023-03-26T05:39:06;99371.38;;;15.28;59.28
36260;BME280;22296;50.824;5.644;2023-03-26T05:42:03;99368.97;;;15.26;59.27
36260;BME280;22296;50.824;5.644;2023-03-26T05:44:43;99363.44;;;15.26;59.37
36260;BME280;22296;50.824;5.644;2023-03-26T05:47:17;99366.22;;;15.26;59.40
36260;BME280;22296;50.824;5.644;2023-03-26T05:49:44;99352.66;;;15.25;59.38
36260;BME280;22296;50.824;5.644;2023-03-26T05:52:12;99356.97;;;15.22;59.56
36260;BME280;22296;50.824;5.644;2023-03-26T05:55:00;99358.59;;;15.23;59.54
36260;BME280;22296;50.824;5.644;2023-03-26T05:57:45;99360.19;;;15.24;59.40
36260;BME280;22296;50.824;5.644;2023-03-26T06:00:38;99355.34;;;15.21;59.71
36260;BME280;22296;50.824;5.644;2023-03-26T06:03:08;99344.94;;;15.18;59.55
36260;BME280;22296;50.824;5.644;2023-03-26T06:05:47;99350.16;;;15.20;59.49
36260;BME280;22296;50.824;5.644;2023-03-26T06:08:36;99341.81;;;15.20;59.49
36260;BME280;22296;50.824;5.644;2023-03-26T06:11:04;99332.69;;;15.19;59.75
36260;BME280;22296;50.824;5.644;2023-03-26T06:13:36;99337.09;;;15.20;59.41
36260;BME280;22296;50.824;5.644;2023-03-26T06:16:03;99331.53;;;15.20;59.56
36260;BME280;22296;50.824;5.644;2023-03-26T06:18:33;99329.09;;;15.19;59.53
36260;BME280;22296;50.824;5.644;2023-03-26T06:21:35;99318.38;;;15.17;59.64
36260;BME280;22296;50.824;5.644;2023-03-26T06:24:13;99317.13;;;15.15;59.56
36260;BME280;22296;50.824;5.644;2023-03-26T06:27:00;99313.97;;;15.16;59.61
36260;BME280;22296;50.824;5.644;2023-03-26T06:29:47;99312.34;;;15.15;59.57
36260;BME280;22296;50.824;5.644;2023-03-26T06:32:33;99311.91;;;15.13;59.66
36260;BME280;22296;50.824;5.644;2023-03-26T06:35:12;99305.19;;;15.14;59.53
36260;BME280;22296;50.824;5.644;2023-03-26T06:37:39;99307.97;;;15.14;59.57
36260;BME280;22296;50.824;5.644;2023-03-26T06:40:08;99304.28;;;15.10;59.84
36260;BME280;22296;50.824;5.644;2023-03-26T06:42:51;99298.03;;;15.13;59.72
36260;BME280;22296;50.824;5.644;2023-03-26T06:45:51;99299.66;;;15.14;59.70
36260;BME280;22296;50.824;5.644;2023-03-26T06:48:36;99289.25;;;15.11;59.82
36260;BME280;22296;50.824;5.644;2023-03-26T06:51:12;99289.25;;;15.11;59.65
36260;BME280;22296;50.824;5.644;2023-03-26T06:53:57;99290.06;;;15.12;59.64
36260;BME280;22296;50.824;5.644;2023-03-26T06:56:42;99286.03;;;15.09;59.58
36260;BME280;22296;50.824;5.644;2023-03-26T06:59:31;99286.03;;;15.09;59.71
36260;BME280;22296;50.824;5.644;2023-03-26T07:02:16;99278.84;;;15.08;59.80
36260;BME280;22296;50.824;5.644;2023-03-26T07:05:01;99275.66;;;15.06;59.80
36260;BME280;22296;50.824;5.644;2023-03-26T07:07:46;99272.50;;;15.08;59.83
36260;BME280;22296;50.824;5.644;2023-03-26T07:10:32;99269.28;;;15.06;59.72
36260;BME280;22296;50.824;5.644;2023-03-26T07:13:11;99266.50;;;15.06;59.81
36260;BME280;22296;50.824;5.644;2023-03-26T07:15:56;99261.28;;;15.04;59.68
36260;BME280;22296;50.824;5.644;2023-03-26T07:18:28;99255.75;;;15.04;59.86
36260;BME280;22296;50.824;5.644;2023-03-26T07:20:56;99252.16;;;15.04;59.82
36260;BME280;22296;50.824;5.644;2023-03-26T07:23:27;99240.72;;;15.05;59.82
36260;BME280;22296;50.824;5.644;2023-03-26T07:26:39;99243.47;;;15.05;59.79
36260;BME280;22296;50.824;5.644;2023-03-26T07:32:26;99225.59;;;15.03;59.92
36260;BME280;22296;50.824;5.644;2023-03-26T07:35:15;99221.19;;;15.02;59.91
36260;BME280;22296;50.824;5.644;2023-03-26T07:38:35;99211.59;;;14.99;60.05
36260;BME280;22296;50.824;5.644;2023-03-26T07:41:44;99202.47;;;14.99;59.89
36260;BME280;22296;50.824;5.644;2023-03-26T07:44:50;99211.31;;;15.04;59.97
36260;BME280;22296;50.824;5.644;2023-03-26T07:47:50;99196.19;;;15.02;60.00
36260;BME280;22296;50.824;5.644;2023-03-26T07:50:40;99199.78;;;15.02;59.94
36260;BME280;22296;50.824;5.644;2023-03-26T07:53:21;99193.00;;;15.00;60.04
36260;BME280;22296;50.824;5.644;2023-03-26T07:56:20;99188.97;;;14.97;60.14
36260;BME280;22296;50.824;5.644;2023-03-26T08:05:21;99163.78;;;14.90;60.32
36260;BME280;22296;50.824;5.644;2023-03-26T08:13:23;99150.63;;;14.87;60.17
36260;BME280;22296;50.824;5.644;2023-03-26T08:16:15;99140.34;;;14.88;60.25
36260;BME280;22296;50.824;5.644;2023-03-26T08:18:56;99139.53;;;14.87;60.28
36260;BME280;22296;50.824;5.644;2023-03-26T08:21:29;99144.66;;;14.85;60.26
36260;BME280;22296;50.824;5.644;2023-03-26T08:24:09;99133.13;;;14.83;60.13
36260;BME280;22296;50.824;5.644;2023-03-26T08:27:11;99139.47;;;14.83;60.14
36260;BME280;22296;50.824;5.644;2023-03-26T08:32:17;99133.13;;;14.83;60.25
36260;BME280;22296;50.824;5.644;2023-03-26T08:34:44;99130.69;;;14.81;60.19
36260;BME280;22296;50.824;5.644;2023-03-26T08:37:11;99124.31;;;14.81;60.01
36260;BME280;22296;50.824;5.644;2023-03-26T08:39:38;99127.09;;;14.81;60.12
36260;BME280;22296;50.824;5.644;2023-03-26T09:12:47;99096.44;;;14.74;60.00
36260;BME280;22296;50.824;5.644;2023-03-26T09:24:33;99080.41;;;14.67;59.97
36260;BME280;22296;50.824;5.644;2023-03-26T09:58:00;99059.09;;;15.45;58.08
36260;BME280;22296;50.824;5.644;2023-03-26T10:00:47;99060.13;;;15.56;57.77
36260;BME280;22296;50.824;5.644;2023-03-26T10:08:54;99065.50;;;15.87;57.13
36260;BME280;22296;50.824;5.644;2023-03-26T10:11:34;99063.97;;;15.89;57.08
36260;BME280;22296;50.824;5.644;2023-03-26T10:16:54;99065.03;;;16.04;56.71
36260;BME280;22296;50.824;5.644;2023-03-26T10:19:40;99052.84;;;16.12;56.49
36260;BME280;22296;50.824;5.644;2023-03-26T10:22:21;99060.47;;;16.15;56.48
36260;BME280;22296;50.824;5.644;2023-03-26T10:27:47;99069.78;;;16.26;56.43
36260;BME280;22296;50.824;5.644;2023-03-26T10:33:21;99067.06;;;16.30;56.09
36260;BME280;22296;50.824;5.644;2023-03-26T10:36:07;99072.75;;;16.37;56.11
36260;BME280;22296;50.824;5.644;2023-03-26T10:52:22;99076.88;;;16.46;55.96
36260;BME280;22296;50.824;5.644;2023-03-26T11:00:24;99093.78;;;16.57;55.90
36260;BME280;22296;50.824;5.644;2023-03-26T11:13:55;99105.81;;;16.65;55.86
36260;BME280;22296;50.824;5.644;2023-03-26T11:17:08;99113.06;;;16.69;55.63
36260;BME280;22296;50.824;5.644;2023-03-26T11:20:13;99105.13;;;16.71;55.66
36260;BME280;22296;50.824;5.644;2023-03-26T11:31:39;99121.88;;;16.75;55.57
36260;BME280;22296;50.824;5.644;2023-03-26T11:34:17;99120.72;;;16.76;55.55
36260;BME280;22296;50.824;5.644;2023-03-26T11:36:50;99117.19;;;16.79;55.56
36260;BME280;22296;50.824;5.644;2023-03-26T11:39:25;99119.97;;;16.79;55.71
36260;BME280;22296;50.824;5.644;2023-03-26T11:42:04;99134.00;;;16.86;55.46
36260;BME280;22296;50.824;5.644;2023-03-26T11:44:47;99130.78;;;16.84;55.71
36260;BME280;22296;50.824;5.644;2023-03-26T11:47:20;99128.38;;;16.82;55.55
36260;BME280;22296;50.824;5.644;2023-03-26T11:49:50;99132.44;;;16.88;55.35
36260;BME280;22296;50.824;5.644;2023-03-26T11:52:18;99136.41;;;16.87;55.56
36260;BME280;22296;50.824;5.644;2023-03-26T11:54:46;99134.41;;;16.88;55.36
36260;BME280;22296;50.824;5.644;2023-03-26T11:57:20;99139.69;;;16.93;55.38
36260;BME280;22296;50.824;5.644;2023-03-26T12:02:27;99144.44;;;16.92;55.66
36260;BME280;22296;50.824;5.644;2023-03-26T12:10:22;99149.63;;;16.94;55.61
36260;BME280;22296;50.824;5.644;2023-03-26T12:12:55;99153.28;;;16.98;55.51
36260;BME280;22296;50.824;5.644;2023-03-26T12:15:23;99149.28;;;16.99;55.50
36260;BME280;22296;50.824;5.644;2023-03-26T12:17:56;99150.59;;;17.05;55.16
36260;BME280;22296;50.824;5.644;2023-03-26T12:22:55;99157.28;;;17.00;55.28
36260;BME280;22296;50.824;5.644;2023-03-26T12:25:31;99158.94;;;17.05;55.16
36260;BME280;22296;50.824;5.644;2023-03-26T12:28:15;99161.31;;;17.03;55.46
36260;BME280;22296;50.824;5.644;2023-03-26T12:30:58;99161.31;;;17.03;55.43
36260;BME280;22296;50.824;5.644;2023-03-26T12:33:29;99168.50;;;17.04;55.49
36260;BME280;22296;50.824;5.644;2023-03-26T12:38:47;99170.63;;;17.14;55.19
36260;BME280;22296;50.824;5.644;2023-03-26T12:41:36;99173.41;;;17.14;55.04
36260;BME280;22296;50.824;5.644;2023-03-26T12:44:43;99179.78;;;17.15;55.18
36260;BME280;22296;50.824;5.644;2023-03-26T12:47:31;99177.81;;;17.15;55.08
36260;BME280;22296;50.824;5.644;2023-03-26T12:50:21;99177.81;;;17.15;55.33
36260;BME280;22296;50.824;5.644;2023-03-26T12:53:15;99182.63;;;17.18;55.31
36260;BME280;22296;50.824;5.644;2023-03-26T13:06:51;99186.25;;;17.22;54.96
36260;BME280;22296;50.824;5.644;2023-03-26T13:10:14;99192.63;;;17.23;55.27
36260;BME280;22296;50.824;5.644;2023-03-26T13:21:02;99197.53;;;17.29;55.09
36260;BME280;22296;50.824;5.644;2023-03-26T13:23:52;99192.38;;;17.31;55.09
36260;BME280;22296;50.824;5.644;2023-03-26T13:26:45;99196.78;;;17.32;55.05
36260;BME280;22296;50.824;5.644;2023-03-26T13:32:24;99203.50;;;17.31;55.10
36260;BME280;22296;50.824;5.644;2023-03-26T13:38:02;99202.22;;;17.25;55.02
36260;BME280;22296;50.824;5.644;2023-03-26T13:46:40;99211.44;;;17.29;55.26
36260;BME280;22296;50.824;5.644;2023-03-26T13:49:43;99217.44;;;17.31;54.96
36260;BME280;22296;50.824;5.644;2023-03-26T13:52:33;99222.28;;;17.34;55.04
36260;BME280;22296;50.824;5.644;2023-03-26T13:55:24;99224.72;;;17.39;55.09
36260;BME280;22296;50.824;5.644;2023-03-26T14:01:05;99234.63;;;17.33;54.99
36260;BME280;22296;50.824;5.644;2023-03-26T14:03:49;99239.84;;;17.38;54.95
36260;BME280;22296;50.824;5.644;2023-03-26T14:06:25;99248.63;;;17.40;54.96
36260;BME280;22296;50.824;5.644;2023-03-26T14:08:59;99249.78;;;17.36;55.12
36260;BME280;22296;50.824;5.644;2023-03-26T14:11:50;99245.78;;;17.37;55.09
36260;BME280;22296;50.824;5.644;2023-03-26T14:14:42;99261.28;;;17.34;55.18
36260;BME280;22296;50.824;5.644;2023-03-26T14:17:28;99256.91;;;17.33;55.06
36260;BME280;22296;50.824;5.644;2023-03-26T14:30:52;99280.03;;;17.37;55.10
36260;BME280;22296;50.824;5.644;2023-03-26T14:41:46;99291.19;;;17.37;54.78
36260;BME280;22296;50.824;5.644;2023-03-26T14:54:43;99315.59;;;17.44;55.05
36260;BME280;22296;50.824;5.644;2023-03-26T15:00:33;99331.88;;;17.42;55.02
36260;BME280;22296;50.824;5.644;2023-03-26T15:26:43;99370.44;;;17.40;55.37
36260;BME280;22296;50.824;5.644;2023-03-26T15:35:18;99394.72;;;17.39;55.22
36260;BME280;22296;50.824;5.644;2023-03-26T15:41:09;99392.75;;;17.40;55.46
36260;BME280;22296;50.824;5.644;2023-03-26T15:47:00;99419.38;;;17.37;55.55
36260;BME280;22296;50.824;5.644;2023-03-26T15:49:42;99419.78;;;17.39;55.28
36260;BME280;22296;50.824;5.644;2023-03-26T15:52:27;99420.19;;;17.38;55.46
36260;BME280;22296;50.824;5.644;2023-03-26T15:55:08;99433.31;;;17.37;55.50
36260;BME280;22296;50.824;5.644;2023-03-26T16:00:51;99449.28;;;17.40;55.50
36260;BME280;22296;50.824;5.644;2023-03-26T16:03:32;99448.13;;;17.41;55.23
36260;BME280;22296;50.824;5.644;2023-03-26T16:06:32;99458.81;;;17.39;55.37
36260;BME280;22296;50.824;5.644;2023-03-26T16:12:33;99469.22;;;17.42;55.45
36260;BME280;22296;50.824;5.644;2023-03-26T16:15:24;99469.28;;;17.46;55.02
36260;BME280;22296;50.824;5.644;2023-03-26T16:18:15;99483.63;;;17.44;55.00
36260;BME280;22296;50.824;5.644;2023-03-26T16:26:51;99498.78;;;17.47;54.96
36260;BME280;22296;50.824;5.644;2023-03-26T16:29:24;99502.75;;;17.46;55.14
36260;BME280;22296;50.824;5.644;2023-03-26T16:34:57;99501.94;;;17.45;55.29
36260;BME280;22296;50.824;5.644;2023-03-26T16:42:52;99514.78;;;17.50;54.94
36260;BME280;22296;50.824;5.644;2023-03-26T16:57:22;99554.59;;;17.50;55.10
36260;BME280;22296;50.824;5.644;2023-03-26T17:02:46;99574.66;;;17.56;55.07
36260;BME280;22296;50.824;5.644;2023-03-26T17:05:32;99583.25;;;17.51;55.16
36260;BME280;22296;50.824;5.644;2023-03-26T17:08:06;99588.50;;;17.52;55.00
36260;BME280;22296;50.824;5.644;2023-03-26T17:10:43;99601.63;;;17.52;55.17
36260;BME280;22296;50.824;5.644;2023-03-26T17:13:26;99604.50;;;17.55;54.84
36260;BME280;22296;50.824;5.644;2023-03-26T17:24:24;99636.00;;;17.56;55.00
36260;BME280;22296;50.824;5.644;2023-03-26T17:27:25;99638.41;;;17.57;54.93
36260;BME280;22296;50.824;5.644;2023-03-26T17:30:25;99637.47;;;17.53;54.87
36260;BME280;22296;50.824;5.644;2023-03-26T17:32:55;99652.59;;;17.52;54.91
36260;BME280;22296;50.824;5.644;2023-03-26T17:35:45;99664.56;;;17.53;54.82
36260;BME280;22296;50.824;5.644;2023-03-26T17:43:49;99682.66;;;17.59;54.83
36260;BME280;22296;50.824;5.644;2023-03-26T17:49:14;99698.78;;;17.53;54.88
36260;BME280;22296;50.824;5.644;2023-03-26T17:51:57;99697.19;;;17.52;55.14
36260;BME280;22296;50.824;5.644;2023-03-26T17:54:38;99703.50;;;17.49;54.96
36260;BME280;22296;50.824;5.644;2023-03-26T18:00:01;99709.06;;;17.49;54.70
36260;BME280;22296;50.824;5.644;2023-03-26T18:02:39;99719.34;;;17.45;54.81
36260;BME280;22296;50.824;5.644;2023-03-26T18:05:11;99720.97;;;17.46;55.12
36260;BME280;22296;50.824;5.644;2023-03-26T18:20:50;99768.78;;;17.48;54.76
36260;BME280;22296;50.824;5.644;2023-03-26T18:23:28;99767.81;;;17.41;55.25
36260;BME280;22296;50.824;5.644;2023-03-26T18:31:40;99786.94;;;17.42;55.20
36260;BME280;22296;50.824;5.644;2023-03-26T18:34:17;99794.06;;;17.40;54.94
36260;BME280;22296;50.824;5.644;2023-03-26T18:39:37;99798.03;;;17.39;55.02
36260;BME280;22296;50.824;5.644;2023-03-26T18:42:05;99806.41;;;17.39;55.24
36260;BME280;22296;50.824;5.644;2023-03-26T18:44:34;99813.47;;;17.36;55.21
36260;BME280;22296;50.824;5.644;2023-03-26T18:47:05;99832.19;;;17.36;54.99
36260;BME280;22296;50.824;5.644;2023-03-26T18:49:32;99832.09;;;17.32;55.37
36260;BME280;22296;50.824;5.644;2023-03-26T18:52:02;99844.13;;;17.36;54.98
36260;BME280;22296;50.824;5.644;2023-03-26T18:54:33;99849.69;;;17.36;55.32
36260;BME280;22296;50.824;5.644;2023-03-26T18:57:07;99845.22;;;17.32;54.92
36260;BME280;22296;50.824;5.644;2023-03-26T18:59:42;99851.34;;;17.37;55.10
36260;BME280;22296;50.824;5.644;2023-03-26T19:02:11;99864.00;;;17.35;54.92
36260;BME280;22296;50.824;5.644;2023-03-26T19:04:41;99863.91;;;17.31;55.09
36260;BME280;22296;50.824;5.644;2023-03-26T19:07:20;99873.00;;;17.28;55.25
36260;BME280;22296;50.824;5.644;2023-03-26T19:09:51;99877.31;;;17.26;55.39
36260;BME280;22296;50.824;5.644;2023-03-26T19:12:29;99882.06;;;17.25;55.39
36260;BME280;22296;50.824;5.644;2023-03-26T19:17:33;99892.94;;;17.15;55.37
36260;BME280;22296;50.824;5.644;2023-03-26T19:20:06;99899.59;;;17.10;55.49
36260;BME280;22296;50.824;5.644;2023-03-26T19:22:38;99909.56;;;17.11;55.43
36260;BME280;22296;50.824;5.644;2023-03-26T19:25:17;99920.75;;;16.99;55.73
36260;BME280;22296;50.824;5.644;2023-03-26T19:27:46;99919.88;;;16.95;55.86
36260;BME280;22296;50.824;5.644;2023-03-26T19:33:00;99928.72;;;16.85;56.29
36260;BME280;22296;50.824;5.644;2023-03-26T19:35:40;99934.91;;;16.78;56.24
36260;BME280;22296;50.824;5.644;2023-03-26T19:38:26;99932.03;;;16.75;56.54
36260;BME280;22296;50.824;5.644;2023-03-26T19:40:55;99933.88;;;16.71;56.57
36260;BME280;22296;50.824;5.644;2023-03-26T19:43:24;99950.16;;;16.69;56.41
36260;BME280;22296;50.824;5.644;2023-03-26T19:45:52;99952.94;;;16.69;56.36
36260;BME280;22296;50.824;5.644;2023-03-26T19:48:32;99965.91;;;16.65;56.43
36260;BME280;22296;50.824;5.644;2023-03-26T19:51:19;99974.19;;;16.61;56.56
36260;BME280;22296;50.824;5.644;2023-03-26T19:54:12;99978.50;;;16.59;56.36
36260;BME280;22296;50.824;5.644;2023-03-26T19:56:41;99986.38;;;16.57;56.51
36260;BME280;22296;50.824;5.644;2023-03-26T19:59:08;99981.84;;;16.52;56.53